Time;durP1;ratioP1;P1;durP2;ratioP2;P2;SDS_P1;SDS_P2;PMS_P1;PMS_P2;Temp;Humidity;BMP_temperature;BMP_pressure;BME280_temperature;BME280_humidity;BME280_pressure;Samples;Min_cycle;Max_cycle;Signal;HPM_P1;HPM_P2
2022/06/09 00:01:55;;;;;;;6.00;3.88;;;14.80;99.90;;;;;;5019862;28;20553;-79
2022/06/09 00:04:36;;;;;;;5.28;3.97;;;15.00;99.90;;;;;;5027542;28;20022;-78
2022/06/09 00:07:10;;;;;;;7.15;4.13;;;14.90;99.90;;;;;;5014490;28;20018;-79
2022/06/09 00:09:44;;;;;;;6.85;4.00;;;14.90;99.90;;;;;;5007444;28;20036;-78
2022/06/09 00:12:10;;;;;;;4.75;4.00;;;15.00;99.90;;;;;;5015228;28;20442;-78
2022/06/09 00:14:37;;;;;;;3.95;3.50;;;15.00;99.90;;;;;;5021892;28;20030;-77
2022/06/09 00:17:03;;;;;;;8.18;4.55;;;15.00;99.90;;;;;;5016662;28;20075;-76
2022/06/09 00:19:29;;;;;;;7.20;4.55;;;15.00;99.90;;;;;;5015598;28;20476;-77
2022/06/09 00:21:55;;;;;;;5.50;4.28;;;14.90;99.90;;;;;;5027658;28;20048;-75
2022/06/09 00:24:21;;;;;;;6.50;4.15;;;15.00;99.90;;;;;;5014217;28;20046;-77
2022/06/09 00:26:47;;;;;;;7.88;4.22;;;14.90;99.90;;;;;;5031632;28;20503;-76
2022/06/09 00:29:12;;;;;;;6.95;4.40;;;15.00;99.90;;;;;;5024485;28;20030;-77
2022/06/09 00:31:38;;;;;;;7.72;4.70;;;15.00;99.90;;;;;;5028329;28;20038;-75
2022/06/09 00:34:03;;;;;;;4.70;4.25;;;14.90;99.90;;;;;;5024750;28;20460;-77
2022/06/09 00:36:29;;;;;;;5.93;4.53;;;14.90;99.90;;;;;;5008734;28;20029;-76
2022/06/09 00:38:58;;;;;;;7.43;4.55;;;14.90;99.90;;;;;;5021568;28;20580;-76
2022/06/09 00:41:25;;;;;;;7.05;5.10;;;14.80;99.90;;;;;;5017189;28;20022;-77
2022/06/09 00:43:51;;;;;;;6.15;4.30;;;14.80;99.90;;;;;;5021881;28;20052;-77
2022/06/09 00:46:25;;;;;;;8.57;4.40;;;14.80;99.90;;;;;;5002759;28;20036;-77
2022/06/09 00:49:01;;;;;;;7.78;4.82;;;14.90;99.90;;;;;;5025579;28;20026;-77
2022/06/09 00:51:27;;;;;;;4.70;4.15;;;14.70;99.90;;;;;;5010231;28;20037;-80
2022/06/09 00:53:57;;;;;;;5.15;4.38;;;14.70;99.90;;;;;;5009139;28;20391;-78
2022/06/09 00:56:23;;;;;;;6.05;4.60;;;14.80;99.90;;;;;;5015176;28;20029;-76
2022/06/09 00:58:51;;;;;;;6.35;4.60;;;14.70;99.90;;;;;;5023146;28;20095;-76
2022/06/09 01:01:18;;;;;;;7.20;4.63;;;14.70;99.90;;;;;;5019003;28;20032;-77
2022/06/09 01:04:08;;;;;;;5.40;4.60;;;14.70;99.90;;;;;;5003073;28;20026;-76
2022/06/09 01:06:43;;;;;;;5.13;4.50;;;14.70;99.90;;;;;;4993438;28;20571;-76
2022/06/09 01:09:15;;;;;;;6.47;4.78;;;14.70;99.90;;;;;;4998296;28;20536;-76
2022/06/09 01:11:41;;;;;;;5.63;4.65;;;14.80;99.90;;;;;;5022916;28;20028;-76
2022/06/09 01:14:13;;;;;;;6.35;4.60;;;14.60;99.90;;;;;;5014880;28;20048;-76
2022/06/09 01:17:09;;;;;;;6.40;4.80;;;14.50;99.90;;;;;;5012874;28;20447;-76
2022/06/09 01:19:51;;;;;;;8.13;5.20;;;14.60;99.90;;;;;;4994814;28;20028;-77
2022/06/09 01:22:40;;;;;;;8.43;5.47;;;14.60;99.90;;;;;;5018752;28;20118;-77
2022/06/09 01:25:30;;;;;;;7.68;5.18;;;14.70;99.90;;;;;;5002001;28;20034;-77
2022/06/09 01:28:16;;;;;;;8.65;4.45;;;14.60;99.90;;;;;;5033206;28;20483;-78
2022/06/09 01:30:56;;;;;;;;;;;14.90;99.90;;;;;;5008868;28;20033;-76
2022/06/09 01:33:34;;;;;;;6.47;5.40;;;14.70;99.90;;;;;;5001338;28;19905;-77
2022/06/09 01:36:09;;;;;;;8.55;5.60;;;14.60;99.90;;;;;;5021039;28;20030;-76
2022/06/09 01:38:46;;;;;;;6.27;5.67;;;14.70;99.90;;;;;;5026008;28;20396;-77
2022/06/09 01:41:13;;;;;;;9.88;5.07;;;14.80;99.90;;;;;;5010040;28;20079;-76
2022/06/09 01:43:39;;;;;;;8.10;5.70;;;14.60;99.90;;;;;;5020065;28;20032;-76
2022/06/09 01:46:09;;;;;;;9.63;6.50;;;14.50;99.90;;;;;;5019064;28;20026;-76
2022/06/09 01:48:36;;;;;;;6.55;5.53;;;14.60;99.90;;;;;;5025340;28;20120;-77
2022/06/09 01:51:13;;;;;;;6.55;5.95;;;14.60;99.90;;;;;;5025796;28;20384;-76
2022/06/09 01:54:00;;;;;;;7.80;5.68;;;14.60;99.90;;;;;;5005297;28;20060;-78
2022/06/09 01:56:49;;;;;;;7.32;5.50;;;14.60;99.90;;;;;;5018405;28;20029;-76
2022/06/09 01:59:39;;;;;;;9.30;6.40;;;14.50;99.90;;;;;;5002115;28;20026;-76
2022/06/09 02:02:12;;;;;;;7.32;5.88;;;14.50;99.90;;;;;;5001795;28;20109;-77
2022/06/09 02:04:43;;;;;;;7.35;6.15;;;14.50;99.90;;;;;;5026540;28;20075;-76
2022/06/09 02:07:10;;;;;;;8.27;6.70;;;14.40;99.90;;;;;;5025586;28;20029;-77
2022/06/09 02:09:37;;;;;;;8.65;6.07;;;14.40;99.90;;;;;;5020036;28;20085;-77
2022/06/09 02:12:12;;;;;;;6.50;5.80;;;14.50;99.90;;;;;;5019128;28;20026;-78
2022/06/09 02:14:40;;;;;;;7.50;5.70;;;14.40;99.90;;;;;;5015784;28;20151;-76
2022/06/09 02:17:07;;;;;;;6.65;5.75;;;14.30;99.90;;;;;;5015941;28;20026;-77
2022/06/09 02:19:35;;;;;;;7.18;5.60;;;14.20;99.90;;;;;;5022165;28;20029;-79
2022/06/09 02:22:02;;;;;;;7.28;5.72;;;14.10;99.90;;;;;;5002110;28;20112;-79
2022/06/09 02:24:29;;;;;;;8.75;5.78;;;14.40;99.90;;;;;;5024139;28;20026;-77
2022/06/09 02:26:55;;;;;;;8.13;5.88;;;14.20;99.90;;;;;;5009485;28;20034;-77
2022/06/09 02:29:21;;;;;;;6.40;5.70;;;14.20;99.90;;;;;;5004519;28;20029;-78
2022/06/09 02:31:47;;;;;;;12.50;5.65;;;14.30;99.90;;;;;;5016974;28;20036;-77
2022/06/09 02:34:13;;;;;;;6.68;4.95;;;14.20;99.90;;;;;;5021619;28;20472;-77
2022/06/09 02:36:39;;;;;;;6.70;5.72;;;14.40;99.90;;;;;;5010745;28;20033;-77
2022/06/09 02:39:06;;;;;;;6.00;5.32;;;14.20;99.90;;;;;;5021435;28;20037;-77
2022/06/09 02:41:32;;;;;;;5.50;4.72;;;14.10;99.90;;;;;;5024676;28;20024;-77
2022/06/09 02:43:58;;;;;;;6.30;4.95;;;14.20;99.90;;;;;;5005013;28;20372;-76
2022/06/09 02:46:24;;;;;;;5.53;4.65;;;14.40;99.90;;;;;;5019588;28;20036;-77
2022/06/09 02:48:49;;;;;;;6.57;4.80;;;14.60;99.90;;;;;;5004570;28;20376;-78
2022/06/09 02:51:18;;;;;;;5.22;4.50;;;14.60;99.90;;;;;;5025298;28;20097;-76
2022/06/09 02:53:44;;;;;;;4.90;4.40;;;14.50;99.90;;;;;;4994662;28;20037;-76
2022/06/09 02:56:10;;;;;;;4.93;4.35;;;14.50;99.90;;;;;;5007198;28;20388;-76
2022/06/09 02:58:35;;;;;;;5.28;4.43;;;14.40;99.90;;;;;;5021750;28;20022;-76
2022/06/09 03:01:01;;;;;;;6.43;4.35;;;14.40;99.90;;;;;;5018841;28;20021;-75
2022/06/09 03:03:26;;;;;;;5.32;4.30;;;14.40;99.90;;;;;;5004495;28;20026;-77
2022/06/09 03:05:52;;;;;;;6.05;4.20;;;14.40;99.90;;;;;;5009365;28;20029;-76
2022/06/09 03:08:17;;;;;;;6.85;4.20;;;14.60;99.90;;;;;;5025544;28;20097;-76
2022/06/09 03:10:43;;;;;;;6.47;4.53;;;14.40;99.90;;;;;;5019341;28;20021;-77
2022/06/09 03:13:09;;;;;;;6.53;4.60;;;14.40;99.90;;;;;;5025790;28;20056;-77
2022/06/09 03:15:35;;;;;;;7.47;4.65;;;14.40;99.90;;;;;;5021389;28;20032;-78
2022/06/09 03:18:01;;;;;;;6.90;4.63;;;14.30;99.90;;;;;;5009905;28;20022;-77
2022/06/09 03:20:29;;;;;;;6.82;5.32;;;14.30;99.90;;;;;;5020468;28;20105;-77
2022/06/09 03:22:54;;;;;;;8.15;5.35;;;14.40;99.90;;;;;;5026091;28;20030;-75
2022/06/09 03:25:20;;;;;;;5.70;4.72;;;14.30;99.90;;;;;;5017940;28;20395;-75
2022/06/09 03:27:47;;;;;;;6.10;5.20;;;14.30;99.90;;;;;;5024222;28;20041;-76
2022/06/09 03:30:13;;;;;;;5.53;5.03;;;14.20;99.90;;;;;;5027820;28;20080;-75
2022/06/09 03:32:38;;;;;;;6.65;5.43;;;14.30;99.90;;;;;;5024628;28;20029;-74
2022/06/09 03:35:06;;;;;;;6.80;5.43;;;14.30;99.90;;;;;;5034323;28;20518;-75
2022/06/09 03:37:31;;;;;;;6.22;5.60;;;14.30;99.90;;;;;;5034151;28;20025;-75
2022/06/09 03:39:57;;;;;;;7.45;5.57;;;14.30;99.90;;;;;;5017364;28;20029;-75
2022/06/09 03:42:23;;;;;;;8.20;5.40;;;14.20;99.90;;;;;;5006365;28;20044;-77
2022/06/09 03:44:48;;;;;;;6.00;5.40;;;14.00;99.90;;;;;;5021516;28;20033;-76
2022/06/09 03:47:14;;;;;;;6.65;5.95;;;14.20;99.90;;;;;;5024926;28;20030;-76
2022/06/09 03:49:40;;;;;;;8.13;5.70;;;14.20;99.90;;;;;;5010105;28;20053;-76
2022/06/09 03:52:06;;;;;;;7.85;5.47;;;14.20;99.90;;;;;;5006378;28;20053;-76
2022/06/09 03:54:32;;;;;;;7.60;5.53;;;14.20;99.90;;;;;;5021374;28;20179;-77
2022/06/09 03:56:58;;;;;;;7.15;5.90;;;14.20;99.90;;;;;;5025595;28;20499;-74
2022/06/09 03:59:23;;;;;;;7.68;6.18;;;14.20;99.90;;;;;;5014968;28;20076;-76
2022/06/09 04:01:49;;;;;;;8.50;6.32;;;13.90;99.90;;;;;;5024826;28;20376;-77
2022/06/09 04:04:14;;;;;;;8.07;6.72;;;14.00;99.90;;;;;;5031561;28;20101;-77
2022/06/09 04:06:41;;;;;;;9.38;6.53;;;14.00;99.90;;;;;;5023750;28;20419;-77
2022/06/09 04:09:06;;;;;;;10.10;6.85;;;13.90;99.90;;;;;;5020310;28;20025;-77
2022/06/09 04:11:32;;;;;;;7.80;6.32;;;13.90;99.90;;;;;;5005903;28;20026;-77
2022/06/09 04:13:59;;;;;;;8.88;6.55;;;14.00;99.90;;;;;;5030536;28;20057;-77
2022/06/09 04:16:26;;;;;;;8.95;6.63;;;14.20;99.90;;;;;;5023364;28;20087;-77
2022/06/09 04:18:53;;;;;;;8.50;6.32;;;14.20;99.90;;;;;;5026664;28;20026;-77
2022/06/09 04:21:19;;;;;;;9.27;6.53;;;14.20;99.90;;;;;;5033072;28;20095;-76
2022/06/09 04:23:45;;;;;;;7.32;6.63;;;14.10;99.90;;;;;;5003781;28;20025;-78
2022/06/09 04:26:17;;;;;;;9.20;6.50;;;14.10;99.90;;;;;;5006098;28;20025;-77
2022/06/09 04:28:43;;;;;;;8.13;6.72;;;14.10;99.90;;;;;;5026564;28;20050;-76
2022/06/09 04:31:10;;;;;;;8.98;6.00;;;14.10;99.90;;;;;;5006666;28;20021;-76
2022/06/09 04:33:36;;;;;;;10.52;6.82;;;14.20;99.90;;;;;;5020000;28;20025;-77
2022/06/09 04:36:02;;;;;;;10.43;5.82;;;14.30;99.90;;;;;;5020391;28;20125;-76
2022/06/09 04:38:28;;;;;;;10.32;6.00;;;14.40;99.90;;;;;;5026472;28;20034;-76
2022/06/09 04:40:54;;;;;;;7.95;5.68;;;14.40;99.90;;;;;;5024052;28;20095;-77
2022/06/09 04:43:20;;;;;;;6.88;4.90;;;14.40;99.90;;;;;;5020173;28;20048;-79
2022/06/09 04:45:45;;;;;;;7.85;5.43;;;14.60;99.90;;;;;;5021136;28;20057;-77
2022/06/09 04:48:11;;;;;;;6.30;5.03;;;14.60;99.90;;;;;;5026820;28;20514;-78
2022/06/09 04:50:38;;;;;;;6.95;5.45;;;14.80;99.90;;;;;;5006484;28;20087;-76
2022/06/09 04:53:05;;;;;;;7.93;5.70;;;14.80;99.90;;;;;;5021155;28;20499;-77
2022/06/09 04:55:31;;;;;;;7.47;5.50;;;14.60;99.90;;;;;;5020609;28;20061;-77
2022/06/09 04:57:58;;;;;;;7.75;5.50;;;14.60;99.90;;;;;;5018911;28;20495;-77
2022/06/09 05:00:24;;;;;;;6.80;4.53;;;14.80;99.90;;;;;;5019832;28;20025;-77
2022/06/09 05:02:51;;;;;;;7.18;5.32;;;14.80;99.90;;;;;;5026335;28;20030;-78
2022/06/09 05:05:24;;;;;;;7.38;5.47;;;14.70;99.90;;;;;;5024112;28;20467;-77
2022/06/09 05:07:50;;;;;;;5.68;4.60;;;14.60;99.90;;;;;;5020182;28;20408;-77
2022/06/09 05:10:16;;;;;;;8.65;5.32;;;14.70;99.90;;;;;;5035971;28;20036;-77
2022/06/09 05:12:42;;;;;;;5.40;4.85;;;14.80;99.90;;;;;;5032355;28;20025;-77
2022/06/09 05:15:19;;;;;;;5.45;4.57;;;14.80;99.90;;;;;;5032530;28;20388;-77
2022/06/09 05:17:45;;;;;;;7.30;4.97;;;14.80;99.90;;;;;;5013097;28;20049;-76
2022/06/09 05:20:13;;;;;;;7.05;4.25;;;14.80;99.90;;;;;;5020091;28;20029;-76
2022/06/09 05:22:39;;;;;;;6.82;4.28;;;15.00;99.90;;;;;;5026992;28;20029;-78
2022/06/09 05:25:06;;;;;;;6.97;4.40;;;15.20;99.90;;;;;;5016725;28;20029;-77
2022/06/09 05:27:32;;;;;;;5.90;4.80;;;15.10;99.90;;;;;;5034290;28;20387;-78
2022/06/09 05:29:58;;;;;;;5.35;4.70;;;14.80;99.90;;;;;;5035374;28;20112;-78
2022/06/09 05:32:23;;;;;;;6.22;5.35;;;14.80;99.90;;;;;;5021526;28;20086;-77
2022/06/09 05:34:49;;;;;;;5.18;4.68;;;14.80;99.90;;;;;;5035666;28;20064;-76
2022/06/09 05:37:15;;;;;;;6.93;5.05;;;15.00;99.90;;;;;;5030331;28;20033;-77
2022/06/09 05:45:10;;;;;;;5.15;4.32;;;14.80;99.90;;;;;;5038609;28;20040;-78
2022/06/09 05:47:36;;;;;;;8.38;4.70;;;14.90;99.90;;;;;;5023783;28;20089;-78
2022/06/09 05:50:02;;;;;;;5.80;4.57;;;15.00;99.90;;;;;;5013162;28;20048;-77
2022/06/09 05:52:29;;;;;;;6.55;5.00;;;15.00;99.90;;;;;;5031234;28;20030;-77
2022/06/09 05:54:55;;;;;;;7.97;4.90;;;14.90;99.90;;;;;;5038348;28;20084;-78
2022/06/09 05:57:22;;;;;;;6.20;5.38;;;14.90;99.90;;;;;;5014327;28;20505;-77
2022/06/09 05:59:48;;;;;;;7.28;5.05;;;14.80;99.90;;;;;;5007868;28;20025;-77
2022/06/09 06:02:15;;;;;;;5.35;4.70;;;15.00;99.90;;;;;;5022804;28;20029;-78
2022/06/09 06:04:41;;;;;;;7.10;4.97;;;14.90;99.90;;;;;;5029596;28;20101;-79
2022/06/09 06:07:07;;;;;;;6.13;4.68;;;14.90;99.90;;;;;;5010029;28;20487;-76
2022/06/09 06:09:32;;;;;;;5.82;4.15;;;15.00;99.90;;;;;;5014751;28;20029;-76
2022/06/09 06:11:58;;;;;;;10.50;4.38;;;15.00;99.90;;;;;;5026629;28;20032;-76
2022/06/09 06:14:24;;;;;;;6.30;4.65;;;14.90;99.90;;;;;;5020523;28;20026;-77
2022/06/09 06:16:50;;;;;;;5.75;4.22;;;15.00;99.90;;;;;;5032353;28;20026;-74
2022/06/09 06:19:17;;;;;;;6.70;4.78;;;14.90;99.90;;;;;;5021455;28;20025;-78
2022/06/09 06:21:44;;;;;;;7.32;4.78;;;15.00;99.90;;;;;;5030474;28;20094;-78
2022/06/09 06:24:10;;;;;;;7.18;4.55;;;14.90;99.90;;;;;;5026007;28;20026;-78
2022/06/09 06:26:36;;;;;;;7.88;5.20;;;15.10;99.90;;;;;;5027170;28;20111;-75
2022/06/09 06:29:04;;;;;;;8.50;5.22;;;15.20;99.90;;;;;;5036901;28;20037;-78
2022/06/09 06:31:30;;;;;;;8.77;5.10;;;15.30;99.90;;;;;;5018885;28;20030;-76
2022/06/09 06:33:55;;;;;;;6.28;4.45;;;15.20;99.90;;;;;;5019094;28;20536;-78
2022/06/09 06:36:21;;;;;;;6.45;4.40;;;15.40;99.90;;;;;;5028304;28;20029;-76
2022/06/09 06:38:48;;;;;;;6.45;5.32;;;15.80;99.90;;;;;;5048315;28;20391;-77
2022/06/09 06:41:14;;;;;;;6.13;4.60;;;15.60;99.90;;;;;;5033266;28;20022;-78
2022/06/09 06:43:39;;;;;;;5.72;4.57;;;15.90;99.90;;;;;;5031984;28;20042;-76
2022/06/09 06:46:05;;;;;;;9.95;5.07;;;16.10;99.90;;;;;;5011447;28;20037;-77
2022/06/09 06:48:32;;;;;;;6.22;5.40;;;15.90;99.90;;;;;;5032016;28;20037;-76
2022/06/09 06:50:58;;;;;;;5.82;4.93;;;16.10;99.90;;;;;;5031766;28;20040;-78
2022/06/09 06:53:24;;;;;;;7.03;5.38;;;15.90;99.90;;;;;;5026073;28;20499;-76
2022/06/09 06:55:49;;;;;;;5.15;4.65;;;15.70;99.90;;;;;;5029445;28;20037;-76
2022/06/09 06:58:15;;;;;;;8.25;4.97;;;16.00;99.90;;;;;;5022052;28;20032;-78
2022/06/09 07:00:42;;;;;;;5.88;4.32;;;16.00;99.90;;;;;;5032512;28;20018;-77
2022/06/09 07:03:08;;;;;;;9.65;4.93;;;16.40;99.90;;;;;;5015604;28;20033;-78
2022/06/09 07:05:34;;;;;;;6.47;4.82;;;16.50;99.90;;;;;;5029741;28;20030;-77
2022/06/09 07:08:00;;;;;;;7.13;4.70;;;16.30;99.90;;;;;;5035072;28;20032;-77
2022/06/09 07:10:26;;;;;;;7.05;4.55;;;16.20;99.90;;;;;;5033039;28;20040;-78
2022/06/09 07:12:52;;;;;;;5.60;4.78;;;15.90;99.90;;;;;;5015364;28;20130;-79
2022/06/09 07:15:18;;;;;;;7.68;4.30;;;16.00;99.90;;;;;;4998681;28;20030;-78
2022/06/09 07:17:43;;;;;;;5.20;3.65;;;16.50;99.90;;;;;;5040211;28;20034;-79
2022/06/09 07:20:12;;;;;;;7.95;4.07;;;16.60;99.90;;;;;;5041310;28;20044;-78
2022/06/09 07:22:38;;;;;;;6.88;4.00;;;16.90;99.90;;;;;;5033700;28;20031;-76
2022/06/09 07:25:06;;;;;;;4.70;3.70;;;16.90;99.90;;;;;;5042269;28;20104;-77
2022/06/09 07:27:32;;;;;;;6.60;3.75;;;16.80;99.90;;;;;;5040882;28;20096;-78
2022/06/09 07:29:58;;;;;;;5.53;3.50;;;16.80;99.90;;;;;;5040341;28;20035;-79
2022/06/09 07:32:23;;;;;;;8.45;4.20;;;16.90;99.90;;;;;;5040162;28;20025;-77
2022/06/09 07:34:50;;;;;;;6.55;3.65;;;17.00;99.90;;;;;;5042761;28;20445;-76
2022/06/09 07:37:16;;;;;;;5.43;3.30;;;17.00;99.90;;;;;;5041532;28;20030;-76
2022/06/09 07:39:42;;;;;;;5.05;3.33;;;16.90;99.90;;;;;;5040147;28;20469;-76
2022/06/09 07:42:09;;;;;;;5.97;3.22;;;17.00;99.90;;;;;;5035234;28;20068;-78
2022/06/09 07:44:35;;;;;;;5.57;3.47;;;16.90;99.90;;;;;;5020939;28;20022;-78
2022/06/09 07:47:01;;;;;;;7.93;3.45;;;17.10;99.90;;;;;;5035437;28;20030;-78
2022/06/09 07:49:26;;;;;;;5.90;3.83;;;17.00;99.90;;;;;;5034526;28;20403;-79
2022/06/09 07:51:52;;;;;;;10.43;3.13;;;17.30;99.90;;;;;;5031691;28;20129;-79
2022/06/09 07:54:18;;;;;;;6.40;2.80;;;17.30;99.90;;;;;;5034445;28;20033;-78
2022/06/09 07:56:44;;;;;;;4.30;2.67;;;17.10;99.90;;;;;;5034843;28;20467;-78
2022/06/09 07:59:09;;;;;;;5.47;2.42;;;17.20;99.90;;;;;;5034220;28;20426;-79
2022/06/09 08:01:36;;;;;;;6.30;2.53;;;17.30;99.90;;;;;;5033395;28;20036;-79
2022/06/09 08:04:02;;;;;;;6.70;2.42;;;17.30;99.90;;;;;;5033810;28;20124;-78
2022/06/09 08:06:28;;;;;;;4.93;2.35;;;17.90;99.90;;;;;;5005621;28;20022;-76
2022/06/09 08:08:56;;;;;;;5.18;2.33;;;18.30;99.90;;;;;;5017448;28;20026;-77
2022/06/09 08:11:22;;;;;;;7.40;2.30;;;18.50;99.90;;;;;;5015153;28;20026;-79
2022/06/09 08:13:48;;;;;;;4.53;1.90;;;18.40;99.90;;;;;;5020979;28;20018;-78
2022/06/09 08:16:14;;;;;;;5.45;2.22;;;18.30;99.90;;;;;;5019319;28;20028;-78
2022/06/09 08:18:39;;;;;;;3.83;2.05;;;18.50;99.90;;;;;;4998551;28;20512;-79
2022/06/09 08:21:05;;;;;;;6.28;2.30;;;18.40;99.90;;;;;;5030705;28;20448;-80
2022/06/09 08:23:31;;;;;;;3.78;1.85;;;18.10;99.90;;;;;;5028544;28;20506;-78
2022/06/09 08:26:03;;;;;;;3.88;1.85;;;17.70;99.90;;;;;;5032114;28;20117;-75
2022/06/09 08:28:29;;;;;;;5.50;2.20;;;17.30;99.90;;;;;;5015776;28;20097;-77
2022/06/09 08:30:56;;;;;;;5.38;2.38;;;17.20;99.90;;;;;;5023386;28;20025;-78
2022/06/09 08:33:24;;;;;;;6.75;2.55;;;17.20;99.90;;;;;;5029325;28;20395;-77
2022/06/09 08:35:51;;;;;;;5.07;1.90;;;17.20;99.90;;;;;;5033245;28;20025;-78
2022/06/09 08:38:16;;;;;;;8.40;2.58;;;17.10;99.90;;;;;;4998693;28;20037;-78
2022/06/09 08:40:51;;;;;;;3.20;2.03;;;17.60;99.90;;;;;;5022836;28;20620;-78
2022/06/09 08:43:31;;;;;;;3.00;2.20;;;18.20;99.90;;;;;;5028659;28;20022;-79
2022/06/09 08:46:01;;;;;;;3.28;1.90;;;18.50;99.90;;;;;;5011407;28;20045;-77
2022/06/09 08:48:34;;;;;;;6.93;2.20;;;19.00;99.90;;;;;;5033706;28;20028;-78
2022/06/09 08:51:04;;;;;;;5.15;2.00;;;18.90;99.90;;;;;;5032858;28;20094;-77
2022/06/09 08:53:37;;;;;;;3.53;1.60;;;18.30;99.90;;;;;;5022324;28;20041;-78
2022/06/09 08:56:16;;;;;;;3.08;1.70;;;18.40;99.90;;;;;;5019642;28;20026;-78
2022/06/09 08:58:54;;;;;;;4.18;2.22;;;18.50;99.90;;;;;;5021490;28;20026;-78
2022/06/09 09:01:29;;;;;;;3.20;1.73;;;19.00;99.90;;;;;;5025939;28;20033;-78
2022/06/09 09:04:01;;;;;;;3.42;1.60;;;19.20;99.90;;;;;;5009848;28;20022;-77
2022/06/09 09:06:39;;;;;;;3.47;1.65;;;18.90;99.90;;;;;;5003931;28;20553;-77
2022/06/09 09:09:22;;;;;;;3.28;1.30;;;18.30;99.90;;;;;;5019533;28;20025;-77
2022/06/09 09:11:51;;;;;;;4.63;1.70;;;18.20;99.90;;;;;;5002048;28;20439;-78
2022/06/09 09:14:21;;;;;;;5.70;1.90;;;18.40;99.90;;;;;;4996504;28;20458;-77
2022/06/09 09:17:11;;;;;;;9.27;2.25;;;18.80;99.90;;;;;;4995221;28;20030;-78
2022/06/09 09:20:02;;;;;;;4.25;1.67;;;19.00;99.90;;;;;;5001919;28;20541;-75
2022/06/09 09:22:48;;;;;;;4.25;1.77;;;19.00;99.90;;;;;;5000968;28;20026;-75
2022/06/09 09:25:25;;;;;;;4.25;1.73;;;18.70;99.90;;;;;;5020163;28;20021;-80
2022/06/09 09:28:05;;;;;;;3.35;1.60;;;18.10;99.90;;;;;;5023716;28;20037;-78
2022/06/09 09:30:40;;;;;;;5.25;1.92;;;17.90;99.90;;;;;;5019296;28;20030;-77
2022/06/09 09:33:11;;;;;;;7.25;2.20;;;17.70;99.90;;;;;;5002414;28;20032;-77
2022/06/09 09:35:40;;;;;;;3.92;2.00;;;17.60;99.90;;;;;;5007044;28;20033;-77
2022/06/09 09:38:07;;;;;;;8.73;2.03;;;17.70;99.90;;;;;;5026264;28;20029;-77
2022/06/09 09:40:37;;;;;;;2.78;1.70;;;17.80;99.90;;;;;;5022200;28;20028;-77
2022/06/09 09:43:14;;;;;;;4.78;2.08;;;17.80;99.90;;;;;;5020222;28;20108;-78
2022/06/09 09:45:42;;;;;;;5.32;1.98;;;17.90;99.90;;;;;;5004512;28;20054;-78
2022/06/09 09:48:17;;;;;;;5.45;1.80;;;18.00;99.90;;;;;;5030113;28;20036;-73
2022/06/09 09:51:01;;;;;;;4.10;2.13;;;18.20;99.90;;;;;;5018880;28;20030;-77
2022/06/09 09:53:45;;;;;;;3.20;1.75;;;18.90;99.90;;;;;;4992574;28;20019;-77
2022/06/09 09:56:17;;;;;;;3.42;1.63;;;18.90;99.90;;;;;;5023268;28;20025;-78
2022/06/09 09:58:49;;;;;;;5.43;2.70;;;18.30;99.90;;;;;;5012046;28;20065;-78
2022/06/09 10:01:14;;;;;;;7.68;2.78;;;17.70;99.90;;;;;;5030520;28;20498;-77
2022/06/09 10:09:45;;;;;;;4.00;1.58;;;17.90;99.90;;;;;;5007061;28;20145;-77
2022/06/09 10:12:17;;;;;;;3.85;1.73;;;18.30;99.90;;;;;;5017982;28;20105;-78
2022/06/09 10:14:43;;;;;;;5.15;1.85;;;18.70;99.90;;;;;;5005131;28;20057;-78
2022/06/09 10:17:57;;;;;;;3.95;1.65;;;19.10;99.90;;;;;;5032178;28;20510;-78
2022/06/09 10:20:26;;;;;;;4.03;1.67;;;19.40;99.90;;;;;;5015972;28;20014;-77
2022/06/09 10:23:09;;;;;;;2.50;1.50;;;19.20;99.90;;;;;;5029047;28;20412;-78
2022/06/09 10:25:52;;;;;;;3.53;1.33;;;19.70;99.90;;;;;;5032701;28;20021;-74
2022/06/09 10:28:51;;;;;;;5.28;1.70;;;19.60;99.90;;;;;;5033509;28;20025;-81
2022/06/09 10:31:41;;;;;;;4.65;1.70;;;19.30;99.90;;;;;;5032005;28;20029;-79
2022/06/09 10:34:34;;;;;;;3.55;1.60;;;18.90;99.90;;;;;;5017906;28;20503;-77
2022/06/09 10:37:10;;;;;;;3.38;1.85;;;18.90;99.90;;;;;;5031579;28;20518;-79
2022/06/09 10:39:35;;;;;;;;;;;19.60;99.90;;;;;;5010104;28;20088;-79
2022/06/09 10:42:11;;;;;;;3.97;1.77;;;20.10;99.90;;;;;;5014665;28;19910;-79
2022/06/09 10:44:46;;;;;;;4.03;1.83;;;20.00;99.90;;;;;;5002131;28;20045;-79
2022/06/09 10:57:12;;;;;;;2.20;1.40;;;19.90;99.90;;;;;;5021399;28;20037;-79
2022/06/09 10:59:47;;;;;;;2.97;1.60;;;19.10;99.90;;;;;;4972012;28;20036;-78
2022/06/09 11:02:16;;;;;;;;;;;19.30;99.90;;;;;;5008692;28;20021;-79
2022/06/09 11:04:43;;;;;;;4.47;1.70;;;19.10;99.90;;;;;;5013356;28;19967;-77
2022/06/09 11:07:12;;;;;;;4.68;1.70;;;19.30;99.90;;;;;;5022983;28;20090;-78
2022/06/09 11:10:02;;;;;;;7.10;2.08;;;19.20;99.90;;;;;;5010056;28;20030;-78
2022/06/09 11:13:04;;;;;;;4.82;1.63;;;19.80;99.90;;;;;;5024460;28;20021;-78
2022/06/09 11:15:41;;;;;;;4.18;2.05;;;19.60;99.90;;;;;;5023917;28;20036;-79
2022/06/09 11:18:12;;;;;;;2.47;1.70;;;19.80;99.90;;;;;;5010120;28;20036;-78
2022/06/09 11:20:53;;;;;;;5.63;1.42;;;19.80;99.90;;;;;;5013698;28;20022;-77
2022/06/09 11:23:44;;;;;;;4.10;1.70;;;20.00;99.90;;;;;;5007531;28;20387;-78
2022/06/09 11:26:32;;;;;;;4.55;1.52;;;19.90;99.90;;;;;;5027876;28;20025;-78
2022/06/09 11:29:09;;;;;;;4.43;1.58;;;19.90;99.90;;;;;;5011756;28;20096;-77
2022/06/09 11:31:44;;;;;;;3.13;1.42;;;19.90;99.90;;;;;;4998089;28;20522;-77
2022/06/09 11:34:35;;;;;;;3.75;1.58;;;20.30;99.90;;;;;;5015710;28;20049;-77
2022/06/09 11:37:21;;;;;;;5.45;1.52;;;20.40;99.90;;;;;;5027721;28;20045;-78
2022/06/09 11:39:56;;;;;;;6.53;1.60;;;20.60;99.90;;;;;;5027637;28;20483;-77
2022/06/09 11:42:49;;;;;;;2.35;1.45;;;20.50;99.90;;;;;;5002291;28;20122;-77
2022/06/09 11:45:23;;;;;;;4.05;1.60;;;20.30;99.90;;;;;;5009443;28;20371;-77
2022/06/09 11:47:50;;;;;;;4.90;1.55;;;20.20;99.90;;;;;;5020781;28;20046;-78
2022/06/09 11:50:19;;;;;;;2.97;1.38;;;20.40;99.90;;;;;;5007616;28;20030;-78
2022/06/09 11:52:49;;;;;;;3.20;1.50;;;20.40;99.90;;;;;;5027433;28;20075;-76
2022/06/09 11:55:58;;;;;;;2.42;1.30;;;20.50;99.90;;;;;;5005880;28;20032;-77
2022/06/09 11:58:36;;;;;;;2.80;1.40;;;20.30;99.90;;;;;;5011418;28;20109;-77
2022/06/09 12:01:43;;;;;;;4.65;1.60;;;20.50;99.90;;;;;;5020178;28;20430;-78
2022/06/09 12:04:56;;;;;;;1.95;1.25;;;21.20;99.90;;;;;;4970454;28;20037;-78
2022/06/09 12:07:38;;;;;;;3.35;1.30;;;20.90;99.90;;;;;;4987370;28;20034;-77
2022/06/09 12:10:28;;;;;;;2.15;1.35;;;21.00;99.90;;;;;;5005513;28;20391;-78
2022/06/09 12:13:22;;;;;;;4.68;1.30;;;21.40;99.90;;;;;;4991196;28;20113;-78
2022/06/09 12:16:05;;;;;;;3.72;1.38;;;21.50;99.90;;;;;;5001608;28;20035;-77
2022/06/09 12:18:57;;;;;;;3.35;1.30;;;21.20;99.90;;;;;;5020349;28;20480;-78
2022/06/09 12:21:31;;;;;;;3.50;1.40;;;21.00;99.90;;;;;;5005191;28;20076;-77
2022/06/09 12:24:31;;;;;;;3.55;1.33;;;21.20;99.90;;;;;;5031679;28;20476;-77
2022/06/09 12:27:21;;;;;;;2.53;1.20;;;21.50;99.90;;;;;;5023925;28;20392;-78
2022/06/09 12:30:28;;;;;;;1.98;1.00;;;20.80;99.90;;;;;;5027617;28;20029;-77
2022/06/09 12:33:24;;;;;;;2.75;1.20;;;20.50;99.90;;;;;;5003835;28;20026;-78
2022/06/09 12:35:53;;;;;;;3.53;1.02;;;21.00;99.90;;;;;;5013530;28;20038;-77
2022/06/09 12:38:30;;;;;;;2.90;1.02;;;21.10;99.90;;;;;;4998644;28;20033;-77
2022/06/09 12:41:01;;;;;;;2.63;1.00;;;21.60;99.90;;;;;;5024798;28;20021;-77
2022/06/09 12:43:35;;;;;;;2.92;1.17;;;21.80;99.90;;;;;;5002899;28;20022;-77
2022/06/09 12:46:06;;;;;;;2.65;1.15;;;21.10;99.90;;;;;;5002677;28;20396;-77
2022/06/09 12:48:33;;;;;;;4.72;1.25;;;21.20;99.90;;;;;;5025896;28;20022;-78
2022/06/09 12:50:59;;;;;;;2.10;1.13;;;20.70;99.90;;;;;;5014043;28;20022;-78
2022/06/09 12:53:38;;;;;;;3.38;1.10;;;21.20;99.90;;;;;;5025824;28;20026;-77
2022/06/09 12:56:46;;;;;;;2.20;1.30;;;21.40;99.90;;;;;;5009260;28;20032;-77
2022/06/09 12:59:25;;;;;;;;;;;21.50;99.90;;;;;;4974850;28;20038;-77
2022/06/09 13:01:58;;;;;;;2.75;1.20;;;21.30;99.90;;;;;;5021095;28;19912;-78
2022/06/09 13:04:26;;;;;;;3.10;1.10;;;21.50;99.90;;;;;;5008849;28;20116;-77
2022/06/09 13:06:53;;;;;;;1.90;1.13;;;21.50;99.90;;;;;;5013408;28;20101;-78
2022/06/09 13:09:28;;;;;;;3.08;1.30;;;21.30;99.90;;;;;;5008660;28;20069;-78
2022/06/09 13:14:46;;;;;;;3.97;1.65;;;21.10;99.90;;;;;;5013858;28;20295;-78
2022/06/09 13:17:24;;;;;;;3.08;0.90;;;20.90;99.90;;;;;;5001963;28;20117;-77
2022/06/09 13:20:16;;;;;;;2.80;1.40;;;21.10;99.90;;;;;;5003844;28;20045;-77
2022/06/09 13:22:43;;;;;;;5.05;1.73;;;21.40;99.90;;;;;;5012255;28;20032;-77
2022/06/09 13:25:26;;;;;;;3.90;1.40;;;21.50;99.90;;;;;;5018263;28;20018;-75
2022/06/09 13:27:53;;;;;;;3.03;1.40;;;22.10;99.90;;;;;;5013174;28;20502;-77
2022/06/09 13:31:00;;;;;;;2.88;1.38;;;22.40;99.90;;;;;;5011082;28;20041;-78
2022/06/09 13:33:51;;;;;;;2.88;1.33;;;22.70;99.90;;;;;;4963883;28;20049;-77
2022/06/09 13:36:20;;;;;;;3.72;1.83;;;23.30;99.90;;;;;;5006911;28;20511;-78